createdAt,value
2019-04-04T00:00:01.425Z,61.95
2019-04-04T00:02:31.100Z,61.48
2019-04-04T00:04:59.486Z,61.61
2019-04-04T00:07:29.175Z,61.48
2019-04-04T00:09:58.115Z,61.31
2019-04-04T00:12:26.493Z,61.26
2019-04-04T00:14:54.880Z,61.05
2019-04-04T00:17:23.866Z,61.27
2019-04-04T00:19:52.363Z,61.21
2019-04-04T00:22:20.741Z,61.11
2019-04-04T00:24:49.131Z,61.28
2019-04-04T00:27:17.505Z,61.02
2019-04-04T00:29:46.022Z,61.02
2019-04-04T00:32:16.065Z,60.84
2019-04-04T00:34:44.444Z,60.66
2019-04-04T00:37:12.821Z,60.74
2019-04-04T00:39:41.204Z,60.53
2019-04-04T00:42:09.597Z,60.40
2019-04-04T00:44:38.006Z,60.32
2019-04-04T00:47:06.358Z,60.56
2019-04-04T00:49:35.540Z,60.71
2019-04-04T00:52:04.683Z,60.73
2019-04-04T00:54:33.058Z,60.70
2019-04-04T00:57:01.435Z,60.87
2019-04-04T00:59:29.816Z,60.76
2019-04-04T01:01:58.195Z,60.72
2019-04-04T01:04:26.576Z,60.77
2019-04-04T01:06:54.956Z,60.74
2019-04-04T01:09:23.333Z,60.84
2019-04-04T01:11:51.869Z,60.97
2019-04-04T01:14:20.270Z,61.22
2019-04-04T01:16:48.659Z,61.73
2019-04-04T01:19:19.721Z,61.94
2019-04-04T01:21:48.109Z,61.80
2019-04-04T01:24:16.500Z,61.92
2019-04-04T01:26:44.876Z,62.14
2019-04-04T01:29:13.272Z,62.23
2019-04-04T01:31:41.630Z,62.02
2019-04-04T01:34:10.004Z,62.25
2019-04-04T01:36:38.396Z,62.43
2019-04-04T01:39:07.232Z,62.66
2019-04-04T01:41:36.410Z,62.75
2019-04-04T01:44:05.633Z,62.73
2019-04-04T01:46:34.079Z,63.08
2019-04-04T01:49:02.466Z,62.90
2019-04-04T01:51:30.849Z,62.56
2019-04-04T01:54:01.034Z,62.69
2019-04-04T01:56:29.332Z,62.70
2019-04-04T01:58:57.716Z,62.89
2019-04-04T02:01:26.131Z,63.27
2019-04-04T02:03:54.535Z,64.21
2019-04-04T02:06:22.916Z,64.17
2019-04-04T02:08:51.298Z,64.06
2019-04-04T02:11:19.674Z,64.38
2019-04-04T02:13:48.072Z,64.03
2019-04-04T02:16:16.904Z,63.93
2019-04-04T02:18:45.903Z,64.16
2019-04-04T02:21:14.285Z,64.24
2019-04-04T02:23:42.679Z,64.80
2019-04-04T02:26:11.057Z,64.97
2019-04-04T02:28:40.022Z,65.62
2019-04-04T02:31:09.368Z,65.67
2019-04-04T02:33:37.753Z,65.88
2019-04-04T02:36:06.139Z,66.31
2019-04-04T02:38:34.518Z,66.45
2019-04-04T02:41:02.912Z,66.60
2019-04-04T02:43:31.391Z,66.40
2019-04-04T02:45:59.769Z,66.54
2019-04-04T02:48:28.178Z,66.85
2019-04-04T02:50:56.714Z,66.91
2019-04-04T02:53:25.041Z,67.04
2019-04-04T02:55:53.435Z,67.37
2019-04-04T02:58:21.894Z,67.32
2019-04-04T03:00:50.283Z,67.22
2019-04-04T03:03:18.671Z,67.47
2019-04-04T03:05:50.954Z,67.66
2019-04-04T03:08:17.199Z,67.77
2019-04-04T03:10:48.226Z,68.02
2019-04-04T03:13:15.715Z,68.56
2019-04-04T03:15:47.167Z,68.68
2019-04-04T03:18:14.240Z,68.70
2019-04-04T03:20:42.639Z,68.81
2019-04-04T03:23:11.143Z,69.14
2019-04-04T03:25:39.527Z,69.28
2019-04-04T03:28:08.257Z,69.32
2019-04-04T03:30:36.661Z,69.57
2019-04-04T03:33:05.038Z,69.79
2019-04-04T03:35:33.463Z,69.62
2019-04-04T03:38:01.824Z,69.55
2019-04-04T03:40:30.208Z,69.48
2019-04-04T03:42:58.632Z,69.57
2019-04-04T03:45:27.624Z,69.86
2019-04-04T03:47:56.118Z,70.01
2019-04-04T03:50:29.047Z,70.10
2019-04-04T03:52:54.654Z,70.22
2019-04-04T03:55:23.057Z,70.29
2019-04-04T03:57:51.868Z,70.22
2019-04-04T04:00:29.752Z,70.18
2019-04-04T04:02:58.477Z,70.14
2019-04-04T04:05:34.554Z,70.33
2019-04-04T04:08:01.330Z,70.43
2019-04-04T04:10:33.512Z,70.66
2019-04-04T04:13:00.871Z,70.60
2019-04-04T04:15:30.492Z,70.59
2019-04-04T04:17:59.047Z,70.35
2019-04-04T04:20:27.594Z,70.26
2019-04-04T04:22:55.992Z,70.22
2019-04-04T04:25:24.393Z,70.44
2019-04-04T04:27:52.798Z,70.56
2019-04-04T04:30:21.212Z,70.79
2019-04-04T04:32:55.800Z,70.64
2019-04-04T04:35:22.678Z,71.07
2019-04-04T04:37:53.422Z,71.34
2019-04-04T04:40:21.214Z,71.10
2019-04-04T04:42:49.676Z,71.24
2019-04-04T04:45:18.093Z,71.31
2019-04-04T04:47:46.486Z,71.29
2019-04-04T04:50:14.942Z,71.21
2019-04-04T04:52:46.326Z,71.02
2019-04-04T04:55:13.514Z,71.19
2019-04-04T04:57:41.923Z,70.80
2019-04-04T05:00:10.720Z,71.11
2019-04-04T05:02:39.066Z,71.29
2019-04-04T05:05:07.535Z,71.03
2019-04-04T05:07:38.458Z,71.40
2019-04-04T05:10:07.718Z,71.46
2019-04-04T05:12:36.122Z,71.75
2019-04-04T05:15:06.989Z,71.61
2019-04-04T05:17:35.389Z,71.57
2019-04-04T05:20:07.685Z,71.59
2019-04-04T05:22:36.091Z,71.67
2019-04-04T05:25:08.240Z,71.71
2019-04-04T05:27:37.349Z,71.70
2019-04-04T05:30:08.333Z,71.16
2019-04-04T05:32:36.709Z,70.78
2019-04-04T05:35:06.812Z,70.68
2019-04-04T05:37:37.974Z,70.16
2019-04-04T05:40:06.853Z,69.87
2019-04-04T05:42:35.295Z,69.95
2019-04-04T05:45:06.003Z,69.69
2019-04-04T05:47:34.397Z,69.51
2019-04-04T05:50:02.985Z,69.53
2019-04-04T05:52:32.693Z,69.48
2019-04-04T05:55:01.442Z,69.57
2019-04-04T05:57:29.853Z,69.80
2019-04-04T05:59:58.245Z,69.50
2019-04-04T06:02:26.620Z,69.27
2019-04-04T06:04:55.505Z,69.48
2019-04-04T06:07:24.005Z,69.25
2019-04-04T06:09:52.385Z,68.92
2019-04-04T06:12:20.795Z,68.88
2019-04-04T06:14:49.180Z,68.57
2019-04-04T06:17:17.566Z,67.94
2019-04-04T06:19:45.953Z,67.45
2019-04-04T06:22:14.342Z,66.58
2019-04-04T06:24:42.729Z,66.87
2019-04-04T06:27:11.119Z,67.06
2019-04-04T06:29:39.501Z,66.64
2019-04-04T06:32:07.920Z,66.92
2019-04-04T06:34:36.306Z,67.46
2019-04-04T06:37:04.698Z,67.41
2019-04-04T06:39:33.085Z,67.28
2019-04-04T06:42:03.260Z,66.59
2019-04-04T06:44:31.615Z,66.07
2019-04-04T06:47:02.021Z,66.26
2019-04-04T06:49:30.132Z,66.18
2019-04-04T06:51:58.584Z,66.07
2019-04-04T06:54:26.989Z,65.16
2019-04-04T06:56:55.360Z,64.06
2019-04-04T06:59:23.811Z,63.49
2019-04-04T07:01:52.648Z,63.47
2019-04-04T07:04:21.041Z,63.14
2019-04-04T07:06:49.449Z,63.16
2019-04-04T07:09:19.015Z,63.09
2019-04-04T07:11:47.706Z,63.04
2019-04-04T07:14:16.113Z,63.01
2019-04-04T07:16:44.523Z,62.75
2019-04-04T07:19:15.093Z,63.17
2019-04-04T07:21:43.574Z,62.67
2019-04-04T07:24:11.961Z,63.41
2019-04-04T07:26:40.350Z,62.75
2019-04-04T07:29:08.738Z,62.51
2019-04-04T07:31:38.377Z,62.58
2019-04-04T07:34:07.026Z,62.45
2019-04-04T07:36:35.418Z,62.19
2019-04-04T07:39:04.967Z,61.98
2019-04-04T07:41:33.351Z,61.55
2019-04-04T07:44:01.749Z,61.35
2019-04-04T07:46:30.127Z,61.42
2019-04-04T07:48:58.523Z,61.20
2019-04-04T07:51:28.122Z,61.35
2019-04-04T07:53:57.043Z,60.61
2019-04-04T07:56:25.424Z,59.76
2019-04-04T07:58:53.957Z,59.52
2019-04-04T08:01:22.333Z,59.22
2019-04-04T08:03:50.722Z,58.95
2019-04-04T08:06:19.114Z,59.02
2019-04-04T08:08:47.538Z,59.02
2019-04-04T08:11:15.932Z,58.28
2019-04-04T08:13:44.355Z,58.26
2019-04-04T08:16:12.774Z,56.96
2019-04-04T08:18:41.182Z,56.35
2019-04-04T08:21:09.569Z,56.42
2019-04-04T08:23:37.946Z,55.61
2019-04-04T08:26:06.426Z,55.52
2019-04-04T08:28:34.806Z,55.46
2019-04-04T08:31:03.285Z,54.91
2019-04-04T08:33:31.681Z,53.74
2019-04-04T08:36:05.845Z,53.47
2019-04-04T08:38:30.249Z,53.51
2019-04-04T08:40:58.678Z,53.04
2019-04-04T08:43:27.104Z,52.53
2019-04-04T08:45:55.531Z,52.48
2019-04-04T08:48:23.959Z,52.89
2019-04-04T08:50:52.329Z,53.09
2019-04-04T08:53:20.787Z,52.59
2019-04-04T08:55:49.184Z,51.86
2019-04-04T08:58:17.605Z,52.30
2019-04-04T09:00:46.051Z,51.42
2019-04-04T09:03:14.523Z,51.45
2019-04-04T09:05:42.871Z,50.87
2019-04-04T09:08:11.285Z,50.72
2019-04-04T09:10:39.697Z,51.13
2019-04-04T09:13:08.091Z,50.66
2019-04-04T09:15:36.559Z,48.98
2019-04-04T09:18:05.082Z,48.23
2019-04-04T09:20:33.490Z,46.99
2019-04-04T09:23:01.875Z,46.59
2019-04-04T09:25:30.276Z,45.73
2019-04-04T09:27:58.666Z,45.08
2019-04-04T09:30:27.185Z,46.17
2019-04-04T09:32:55.580Z,46.87
2019-04-04T09:35:23.977Z,45.68
2019-04-04T09:37:52.375Z,46.15
2019-04-04T09:40:20.793Z,44.28
2019-04-04T09:42:49.186Z,44.35
2019-04-04T09:45:18.052Z,44.02
2019-04-04T09:47:46.435Z,42.90
2019-04-04T09:50:15.280Z,42.79
2019-04-04T09:52:43.710Z,42.91
2019-04-04T09:55:12.246Z,42.27
2019-04-04T09:57:40.663Z,41.78
2019-04-04T10:00:14.841Z,42.10
2019-04-04T10:02:43.331Z,40.18
2019-04-04T10:05:12.179Z,39.72
2019-04-04T10:07:40.593Z,39.89
2019-04-04T10:10:09.720Z,39.22
2019-04-04T10:12:38.173Z,39.22
2019-04-04T10:15:08.445Z,39.49
2019-04-04T10:17:36.919Z,39.21
2019-04-04T10:20:07.044Z,39.92
2019-04-04T10:22:35.450Z,39.62
2019-04-04T10:25:04.605Z,39.31
2019-04-04T10:27:32.995Z,39.21
2019-04-04T10:30:01.379Z,38.76
2019-04-04T10:32:29.798Z,39.11
2019-04-04T10:34:58.195Z,39.12
2019-04-04T10:37:26.671Z,38.92
2019-04-04T10:39:55.056Z,39.40
2019-04-04T10:42:23.473Z,39.42
2019-04-04T10:44:51.892Z,39.72
2019-04-04T10:47:20.544Z,39.18
2019-04-04T10:49:48.991Z,39.07
2019-04-04T10:52:17.317Z,38.76
2019-04-04T10:54:46.704Z,38.45
2019-04-04T10:57:15.094Z,38.27
2019-04-04T10:59:43.488Z,37.91
2019-04-04T11:02:11.946Z,37.52
2019-04-04T11:04:40.325Z,37.05
2019-04-04T11:07:08.723Z,37.28
2019-04-04T11:09:42.255Z,37.17
2019-04-04T11:12:07.267Z,37.03
2019-04-04T11:14:35.658Z,36.98
2019-04-04T11:17:04.112Z,37.16
2019-04-04T11:19:32.516Z,37.37
2019-04-04T11:22:00.908Z,37.01
2019-04-04T11:24:29.297Z,36.54
2019-04-04T11:26:57.681Z,37.02
2019-04-04T11:29:26.100Z,36.59
2019-04-04T11:31:54.486Z,36.94
2019-04-04T11:34:22.974Z,36.82
2019-04-04T11:36:51.363Z,36.62
2019-04-04T11:39:19.752Z,36.18
2019-04-04T11:41:48.219Z,36.21
2019-04-04T11:44:16.632Z,36.59
2019-04-04T11:46:45.223Z,36.64
2019-04-04T11:49:13.729Z,36.46
2019-04-04T11:51:42.134Z,36.42
2019-04-04T11:54:10.668Z,36.23
2019-04-04T11:56:39.069Z,36.15
2019-04-04T11:59:08.302Z,35.90
2019-04-04T12:01:40.993Z,36.26
2019-04-04T12:04:09.449Z,35.71
2019-04-04T12:06:37.832Z,36.12
2019-04-04T12:09:07.727Z,36.21
2019-04-04T12:11:36.248Z,36.21
2019-04-04T12:14:05.383Z,36.29
2019-04-04T12:16:34.683Z,37.25
2019-04-04T12:19:03.106Z,37.76
2019-04-04T12:21:31.509Z,38.70
2019-04-04T12:23:59.969Z,38.66
2019-04-04T12:26:28.365Z,39.70
2019-04-04T12:28:56.997Z,39.70
2019-04-04T12:31:25.386Z,39.92
2019-04-04T12:33:53.879Z,40.05
2019-04-04T12:36:24.913Z,40.42
2019-04-04T12:38:52.389Z,40.44
2019-04-04T12:41:20.787Z,40.29
2019-04-04T12:43:49.253Z,39.89
2019-04-04T12:46:17.640Z,39.87
2019-04-04T12:48:46.050Z,39.73
2019-04-04T12:51:14.436Z,39.86
2019-04-04T12:53:42.835Z,39.99
2019-04-04T12:56:11.215Z,40.30
2019-04-04T12:58:39.619Z,40.11
2019-04-04T13:01:07.999Z,39.78
2019-04-04T13:03:36.428Z,40.06
2019-04-04T13:06:04.937Z,40.08
2019-04-04T13:08:33.333Z,40.23
2019-04-04T13:11:01.786Z,40.39
2019-04-04T13:13:30.184Z,40.08
2019-04-04T13:15:58.592Z,40.23
2019-04-04T13:18:26.979Z,40.34
2019-04-04T13:20:55.442Z,40.49
2019-04-04T13:23:23.845Z,40.25
2019-04-04T13:25:52.240Z,39.73
2019-04-04T13:28:20.732Z,39.53
2019-04-04T13:30:49.189Z,39.33
2019-04-04T13:33:17.636Z,39.47
2019-04-04T13:35:46.026Z,39.78
2019-04-04T13:38:14.397Z,39.81
2019-04-04T13:40:45.734Z,40.18
2019-04-04T13:43:12.941Z,40.44
2019-04-04T13:45:41.328Z,39.94
2019-04-04T13:48:10.684Z,40.05
2019-04-04T13:50:39.876Z,39.93
2019-04-04T13:53:08.256Z,39.87
2019-04-04T13:55:39.211Z,39.64
2019-04-04T13:58:11.097Z,39.80
2019-04-04T14:00:40.971Z,39.89
2019-04-04T14:03:10.702Z,39.85
2019-04-04T14:05:39.903Z,39.83
2019-04-04T14:08:10.007Z,39.50
2019-04-04T14:10:39.415Z,39.20
2019-04-04T14:13:07.794Z,39.34
2019-04-04T14:15:36.270Z,39.74
2019-04-04T14:18:08.450Z,39.65
2019-04-04T14:20:37.080Z,40.00
2019-04-04T14:23:07.515Z,40.51
2019-04-04T14:25:39.697Z,40.09
2019-04-04T14:28:08.642Z,40.38
2019-04-04T14:30:37.043Z,40.26
2019-04-04T14:33:05.438Z,40.49
2019-04-04T14:35:34.900Z,40.45
2019-04-04T14:38:06.875Z,40.60
2019-04-04T14:40:35.593Z,40.74
2019-04-04T14:43:04.277Z,40.79
2019-04-04T14:45:35.868Z,41.19
2019-04-04T14:48:10.965Z,41.44
2019-04-04T14:50:40.804Z,41.73
2019-04-04T14:53:12.511Z,42.24
2019-04-04T14:55:41.020Z,42.13
2019-04-04T14:58:09.419Z,41.92
2019-04-04T15:00:37.874Z,41.82
2019-04-04T15:03:06.275Z,41.94
2019-04-04T15:05:39.867Z,41.97
2019-04-04T15:08:13.439Z,41.57
2019-04-04T15:10:41.976Z,41.76
2019-04-04T15:13:10.385Z,41.55
2019-04-04T15:15:41.836Z,41.44
2019-04-04T15:18:10.219Z,41.63
2019-04-04T15:20:38.625Z,41.52
2019-04-04T15:23:07.019Z,41.51
2019-04-04T15:25:35.413Z,41.43
2019-04-04T15:28:03.881Z,41.92
2019-04-04T15:30:32.291Z,42.31
2019-04-04T15:33:02.668Z,42.78
2019-04-04T15:35:30.849Z,43.11
2019-04-04T15:37:59.242Z,43.20
2019-04-04T15:40:27.667Z,43.57
2019-04-04T15:42:56.060Z,44.18
2019-04-04T15:45:24.521Z,45.10
2019-04-04T15:47:53.009Z,45.57
2019-04-04T15:50:21.475Z,46.18
2019-04-04T15:52:49.968Z,46.84
2019-04-04T15:55:18.360Z,47.43
2019-04-04T15:57:46.840Z,47.68
2019-04-04T16:00:15.606Z,48.10
2019-04-04T16:02:44.001Z,48.44
2019-04-04T16:05:12.664Z,48.49
2019-04-04T16:07:41.067Z,49.16
2019-04-04T16:10:09.793Z,49.54
2019-04-04T16:12:38.228Z,49.96
2019-04-04T16:15:07.526Z,50.24
2019-04-04T16:17:35.977Z,50.53
2019-04-04T16:20:07.644Z,50.78
2019-04-04T16:22:36.046Z,51.17
2019-04-04T16:25:06.357Z,51.22
2019-04-04T16:27:34.767Z,51.20
2019-04-04T16:30:03.714Z,51.46
2019-04-04T16:32:32.130Z,51.50
2019-04-04T16:35:00.524Z,51.49
2019-04-04T16:37:28.919Z,51.72
2019-04-04T16:40:08.185Z,52.04
2019-04-04T16:42:27.496Z,52.00
2019-04-04T16:44:55.957Z,52.47
2019-04-04T16:47:24.357Z,53.00
2019-04-04T16:49:52.802Z,52.67
2019-04-04T16:52:21.227Z,52.54
2019-04-04T16:54:49.628Z,52.79
2019-04-04T16:57:18.029Z,52.72
2019-04-04T16:59:46.421Z,52.80
2019-04-04T17:02:14.831Z,52.82
2019-04-04T17:04:43.217Z,52.92
2019-04-04T17:07:11.612Z,52.97
2019-04-04T17:09:40.032Z,53.05
2019-04-04T17:12:14.785Z,52.95
2019-04-04T17:14:38.544Z,53.18
2019-04-04T17:17:06.938Z,53.21
2019-04-04T17:19:35.485Z,53.41
2019-04-04T17:22:03.941Z,53.37
2019-04-04T17:24:32.325Z,53.80
2019-04-04T17:27:00.741Z,53.60
2019-04-04T17:29:29.135Z,53.86
2019-04-04T17:31:57.605Z,53.94
2019-04-04T17:34:26.325Z,53.79
2019-04-04T17:36:55.164Z,54.00
2019-04-04T17:39:23.536Z,54.00
2019-04-04T17:41:52.072Z,53.78
2019-04-04T17:44:20.564Z,53.74
2019-04-04T17:46:49.321Z,54.01
2019-04-04T17:49:17.996Z,53.99
2019-04-04T17:51:46.895Z,53.97
2019-04-04T17:54:15.404Z,53.91
2019-04-04T17:56:44.319Z,53.79
2019-04-04T17:59:12.730Z,53.83
2019-04-04T18:01:41.125Z,53.87
2019-04-04T18:04:09.516Z,54.17
2019-04-04T18:06:40.564Z,54.23
2019-04-04T18:09:09.272Z,54.30
2019-04-04T18:11:37.733Z,54.49
2019-04-04T18:14:06.196Z,54.43
2019-04-04T18:16:34.641Z,54.68
2019-04-04T18:19:04.188Z,54.64
2019-04-04T18:21:32.649Z,54.61
2019-04-04T18:24:01.049Z,54.60
2019-04-04T18:26:29.436Z,54.35
2019-04-04T18:28:57.853Z,54.42
2019-04-04T18:31:26.243Z,54.80
2019-04-04T18:33:54.986Z,55.04
2019-04-04T18:36:23.407Z,55.16
2019-04-04T18:38:51.822Z,55.18
2019-04-04T18:41:20.205Z,55.27
2019-04-04T18:43:48.642Z,55.50
2019-04-04T18:46:17.102Z,55.73
2019-04-04T18:48:45.535Z,56.28
2019-04-04T18:51:14.116Z,56.25
2019-04-04T18:53:42.509Z,56.03
2019-04-04T18:56:10.895Z,55.71
2019-04-04T18:58:39.297Z,55.80
2019-04-04T19:01:07.739Z,55.72
2019-04-04T19:03:36.135Z,55.61
2019-04-04T19:06:04.615Z,55.63
2019-04-04T19:08:33.029Z,55.86
2019-04-04T19:11:01.483Z,56.17
2019-04-04T19:13:38.496Z,56.18
2019-04-04T19:16:00.068Z,56.20
2019-04-04T19:18:28.558Z,56.41
2019-04-04T19:20:57.024Z,56.51
2019-04-04T19:23:25.555Z,56.64
2019-04-04T19:25:54.150Z,56.42
2019-04-04T19:28:22.683Z,56.30
2019-04-04T19:30:51.066Z,56.27
2019-04-04T19:33:19.551Z,56.24
2019-04-04T19:35:47.946Z,56.15
2019-04-04T19:38:16.336Z,56.03
2019-04-04T19:40:44.747Z,56.27
2019-04-04T19:43:18.271Z,56.35
2019-04-04T19:45:43.277Z,56.52
2019-04-04T19:48:11.738Z,56.63
2019-04-04T19:50:40.149Z,56.91
2019-04-04T19:53:08.605Z,57.17
2019-04-04T19:55:37.033Z,57.04
2019-04-04T19:58:05.411Z,57.02
2019-04-04T20:00:33.979Z,57.38
2019-04-04T20:03:02.369Z,57.38
2019-04-04T20:05:30.769Z,57.52
2019-04-04T20:07:59.398Z,57.59
2019-04-04T20:10:27.802Z,57.93
2019-04-04T20:12:56.190Z,58.01
2019-04-04T20:15:24.580Z,58.07
2019-04-04T20:17:53.006Z,58.23
2019-04-04T20:20:21.876Z,58.09
2019-04-04T20:22:50.264Z,58.23
2019-04-04T20:25:18.748Z,58.08
2019-04-04T20:27:54.677Z,57.77
2019-04-04T20:30:19.255Z,57.91
2019-04-04T20:32:47.668Z,57.83
2019-04-04T20:35:16.064Z,57.75
2019-04-04T20:37:44.486Z,57.74
2019-04-04T20:40:13.000Z,57.53
2019-04-04T20:42:41.411Z,57.66
2019-04-04T20:45:09.894Z,57.48
2019-04-04T20:47:38.396Z,57.34
2019-04-04T20:50:07.126Z,57.46
2019-04-04T20:52:35.528Z,57.42
2019-04-04T20:55:04.845Z,57.38
2019-04-04T20:57:33.232Z,57.02
2019-04-04T21:00:01.625Z,57.20
2019-04-04T21:02:30.031Z,57.52
2019-04-04T21:04:58.420Z,57.55
2019-04-04T21:07:27.799Z,57.70
2019-04-04T21:09:56.190Z,57.80
2019-04-04T21:12:24.606Z,57.49
2019-04-04T21:14:52.997Z,57.23
2019-04-04T21:17:21.389Z,57.41
2019-04-04T21:19:49.781Z,57.47
2019-04-04T21:22:27.339Z,57.50
2019-04-04T21:24:48.309Z,57.52
2019-04-04T21:27:18.766Z,57.22
2019-04-04T21:29:46.880Z,57.21
2019-04-04T21:32:15.281Z,57.24
2019-04-04T21:34:43.659Z,57.25
2019-04-04T21:37:12.074Z,57.58
2019-04-04T21:39:41.357Z,57.62
2019-04-04T21:42:09.761Z,57.50
2019-04-04T21:44:38.180Z,57.26
2019-04-04T21:47:06.535Z,57.38
2019-04-04T21:49:34.925Z,57.47
2019-04-04T21:52:03.332Z,57.50
2019-04-04T21:54:31.716Z,57.58
2019-04-04T21:57:00.140Z,57.77
2019-04-04T21:59:28.534Z,57.85
2019-04-04T22:01:57.042Z,57.78
2019-04-04T22:04:25.432Z,57.75
2019-04-04T22:06:53.844Z,57.63
2019-04-04T22:09:22.305Z,57.59
2019-04-04T22:11:50.765Z,57.80
2019-04-04T22:14:21.904Z,57.85
2019-04-04T22:16:49.286Z,58.02
2019-04-04T22:19:17.671Z,58.15
2019-04-04T22:21:46.054Z,58.31
2019-04-04T22:24:14.448Z,58.15
2019-04-04T22:26:42.858Z,58.13
2019-04-04T22:29:11.272Z,58.20
2019-04-04T22:31:39.669Z,58.33
2019-04-04T22:34:08.063Z,58.20
2019-04-04T22:36:36.475Z,58.33
2019-04-04T22:39:07.418Z,58.24
2019-04-04T22:41:35.806Z,58.27
2019-04-04T22:44:04.287Z,58.55
2019-04-04T22:46:32.680Z,58.63
2019-04-04T22:49:01.088Z,58.84
2019-04-04T22:51:29.499Z,58.69
2019-04-04T22:53:57.923Z,58.58
2019-04-04T22:56:26.333Z,58.66
2019-04-04T22:58:54.716Z,58.76
2019-04-04T23:01:23.105Z,58.89
2019-04-04T23:03:51.497Z,59.06
2019-04-04T23:06:19.959Z,59.01
2019-04-04T23:08:48.354Z,59.09
2019-04-04T23:11:16.745Z,59.27
2019-04-04T23:13:45.177Z,59.32
2019-04-04T23:16:13.631Z,59.59
2019-04-04T23:18:42.032Z,59.59
2019-04-04T23:21:10.421Z,59.52
2019-04-04T23:23:38.813Z,59.69
2019-04-04T23:26:07.197Z,60.33
2019-04-04T23:28:35.587Z,60.29
2019-04-04T23:31:03.977Z,60.22
2019-04-04T23:33:32.386Z,60.20
2019-04-04T23:36:00.792Z,60.20
2019-04-04T23:38:29.185Z,60.24
2019-04-04T23:40:57.579Z,60.43
2019-04-04T23:43:25.964Z,60.57
2019-04-04T23:45:54.351Z,60.64
2019-04-04T23:48:22.747Z,60.74
2019-04-04T23:50:51.135Z,60.82
2019-04-04T23:53:19.539Z,60.74
2019-04-04T23:55:47.939Z,61.04
2019-04-04T23:58:16.328Z,61.03
